createdAt,value
2019-02-07T00:00:45.423Z,1005.95
2019-02-07T00:01:45.396Z,1005.93
2019-02-07T00:02:45.376Z,1005.97
2019-02-07T00:03:45.358Z,1005.99
2019-02-07T00:04:45.319Z,1006.01
2019-02-07T00:05:45.326Z,1005.97
2019-02-07T00:06:45.270Z,1006.00
2019-02-07T00:07:45.370Z,1006.00
2019-02-07T00:08:45.220Z,1005.96
2019-02-07T00:09:45.198Z,1005.96
2019-02-07T00:10:45.179Z,1005.93
2019-02-07T00:11:45.148Z,1005.88
2019-02-07T00:12:45.123Z,1005.89
2019-02-07T00:13:45.090Z,1005.90
2019-02-07T00:14:45.071Z,1005.95
2019-02-07T00:15:45.050Z,1005.90
2019-02-07T00:16:45.043Z,1005.88
2019-02-07T00:17:44.999Z,1005.84
2019-02-07T00:18:44.995Z,1005.87
2019-02-07T00:19:44.959Z,1005.88
2019-02-07T00:20:44.921Z,1005.86
2019-02-07T00:21:44.899Z,1005.86
2019-02-07T00:22:44.871Z,1005.84
2019-02-07T00:23:44.847Z,1005.86
2019-02-07T00:24:44.823Z,1005.82
2019-02-07T00:25:44.798Z,1005.85
2019-02-07T00:26:44.783Z,1005.83
2019-02-07T00:27:44.748Z,1005.79
2019-02-07T00:28:44.724Z,1005.81
2019-02-07T00:29:44.698Z,1005.79
2019-02-07T00:30:44.666Z,1005.80
2019-02-07T00:31:44.659Z,1005.80
2019-02-07T00:32:44.710Z,1005.80
2019-02-07T00:33:44.597Z,1005.77
2019-02-07T00:34:44.572Z,1005.74
2019-02-07T00:35:44.545Z,1005.77
2019-02-07T00:36:44.523Z,1005.75
2019-02-07T00:37:44.494Z,1005.76
2019-02-07T00:38:44.467Z,1005.72
2019-02-07T00:39:44.446Z,1005.74
2019-02-07T00:40:44.420Z,1005.74
2019-02-07T00:41:44.399Z,1005.74
2019-02-07T00:42:44.382Z,1005.70
2019-02-07T00:43:44.347Z,1005.70
2019-02-07T00:44:50.694Z,1005.66
2019-02-07T00:45:44.307Z,1005.67
2019-02-07T00:46:44.270Z,1005.58
2019-02-07T00:47:44.269Z,1005.54
2019-02-07T00:48:44.222Z,1005.54
2019-02-07T00:49:44.195Z,1005.51
2019-02-07T00:50:44.179Z,1005.50
2019-02-07T00:51:44.146Z,1005.41
2019-02-07T00:52:44.122Z,1005.44
2019-02-07T00:53:44.107Z,1005.43
2019-02-07T00:54:44.063Z,1005.39
2019-02-07T00:55:44.053Z,1005.46
2019-02-07T00:56:44.023Z,1005.40
2019-02-07T00:57:43.999Z,1005.40
2019-02-07T00:58:44.078Z,1005.37
2019-02-07T00:59:43.952Z,1005.35
2019-02-07T01:00:43.927Z,1005.35
2019-02-07T01:01:43.897Z,1005.41
2019-02-07T01:02:43.864Z,1005.33
2019-02-07T01:03:43.846Z,1005.31
2019-02-07T01:04:43.821Z,1005.35
2019-02-07T01:05:43.795Z,1005.36
2019-02-07T01:06:43.771Z,1005.31
2019-02-07T01:07:43.746Z,1005.34
2019-02-07T01:08:43.723Z,1005.26
2019-02-07T01:09:43.696Z,1005.29
2019-02-07T01:10:43.674Z,1005.26
2019-02-07T01:11:43.644Z,1005.23
2019-02-07T01:12:43.685Z,1005.20
2019-02-07T01:13:43.594Z,1005.17
2019-02-07T01:14:43.570Z,1005.14
2019-02-07T01:15:43.547Z,1005.12
2019-02-07T01:16:43.521Z,1005.19
2019-02-07T01:17:43.501Z,1005.15
2019-02-07T01:18:43.465Z,1005.13
2019-02-07T01:19:43.454Z,1005.16
2019-02-07T01:20:43.424Z,1005.18
2019-02-07T01:21:43.397Z,1005.17
2019-02-07T01:22:43.370Z,1005.18
2019-02-07T01:23:43.345Z,1005.17
2019-02-07T01:24:43.321Z,1005.19
2019-02-07T01:25:43.297Z,1005.17
2019-02-07T01:26:43.283Z,1005.17
2019-02-07T01:27:43.270Z,1005.16
2019-02-07T01:28:43.223Z,1005.13
2019-02-07T01:29:43.195Z,1005.10
2019-02-07T01:30:43.180Z,1005.10
2019-02-07T01:31:43.141Z,1005.09
2019-02-07T01:32:43.123Z,1005.09
2019-02-07T01:33:43.103Z,1005.12
2019-02-07T01:34:43.071Z,1005.09
2019-02-07T01:35:43.052Z,1005.05
2019-02-07T01:36:43.028Z,1005.06
2019-02-07T01:37:42.996Z,1005.03
2019-02-07T01:38:42.970Z,1005.02
2019-02-07T01:39:42.968Z,1005.06
2019-02-07T01:40:42.918Z,1005.06
2019-02-07T01:41:42.897Z,1004.99
2019-02-07T01:42:42.872Z,1004.91
2019-02-07T01:43:42.855Z,1004.95
2019-02-07T01:44:42.820Z,1004.92
2019-02-07T01:45:42.799Z,1004.89
2019-02-07T01:46:42.775Z,1004.86
2019-02-07T01:47:42.749Z,1004.83
2019-02-07T01:48:42.721Z,1004.78
2019-02-07T01:49:42.708Z,1004.85
2019-02-07T01:50:42.665Z,1004.79
2019-02-07T01:51:42.651Z,1004.80
2019-02-07T01:52:42.623Z,1004.82
2019-02-07T01:53:42.601Z,1004.85
2019-02-07T01:54:42.572Z,1004.80
2019-02-07T01:55:42.549Z,1004.85
2019-02-07T01:56:42.524Z,1004.82
2019-02-07T01:57:42.512Z,1004.77
2019-02-07T01:58:42.474Z,1004.76
2019-02-07T01:59:42.453Z,1004.80
2019-02-07T02:00:42.448Z,1004.71
2019-02-07T02:01:42.401Z,1004.68
2019-02-07T02:02:42.375Z,1004.63
2019-02-07T02:03:42.350Z,1004.61
2019-02-07T02:04:42.376Z,1004.61
2019-02-07T02:05:42.303Z,1004.58
2019-02-07T02:06:42.275Z,1004.58
2019-02-07T02:07:42.251Z,1004.63
2019-02-07T02:08:42.230Z,1004.62
2019-02-07T02:09:42.203Z,1004.56
2019-02-07T02:10:42.188Z,1004.58
2019-02-07T02:11:42.148Z,1004.53
2019-02-07T02:12:42.128Z,1004.51
2019-02-07T02:13:42.096Z,1004.58
2019-02-07T02:14:42.072Z,1004.54
2019-02-07T02:15:42.054Z,1004.57
2019-02-07T02:16:42.048Z,1004.54
2019-02-07T02:17:42.004Z,1004.60
2019-02-07T02:18:41.977Z,1004.65
2019-02-07T02:19:41.959Z,1004.66
2019-02-07T02:20:41.928Z,1004.68
2019-02-07T02:21:41.903Z,1004.65
2019-02-07T02:22:41.992Z,1004.61
2019-02-07T02:23:41.855Z,1004.62
2019-02-07T02:24:41.830Z,1004.55
2019-02-07T02:25:41.807Z,1004.55
2019-02-07T02:26:41.780Z,1004.54
2019-02-07T02:27:41.755Z,1004.54
2019-02-07T02:28:41.730Z,1004.51
2019-02-07T02:29:41.707Z,1004.50
2019-02-07T02:30:41.680Z,1004.45
2019-02-07T02:31:41.657Z,1004.47
2019-02-07T02:32:41.630Z,1004.42
2019-02-07T02:33:41.617Z,1004.43
2019-02-07T02:34:41.584Z,1004.42
2019-02-07T02:35:41.559Z,1004.48
2019-02-07T02:36:41.535Z,1004.41
2019-02-07T02:37:41.510Z,1004.42
2019-02-07T02:38:41.490Z,1004.40
2019-02-07T02:39:41.457Z,1004.33
2019-02-07T02:40:41.437Z,1004.37
2019-02-07T02:41:41.414Z,1004.31
2019-02-07T02:42:41.379Z,1004.26
2019-02-07T02:43:41.359Z,1004.24
2019-02-07T02:44:41.336Z,1004.23
2019-02-07T02:45:41.313Z,1004.27
2019-02-07T02:46:41.289Z,1004.30
2019-02-07T02:47:41.303Z,1004.33
2019-02-07T02:48:41.235Z,1004.36
2019-02-07T02:49:41.211Z,1004.25
2019-02-07T02:50:41.192Z,1004.24
2019-02-07T02:51:41.168Z,1004.23
2019-02-07T02:52:41.142Z,1004.25
2019-02-07T02:53:41.108Z,1004.25
2019-02-07T02:54:41.089Z,1004.20
2019-02-07T02:55:41.065Z,1004.19
2019-02-07T02:56:41.068Z,1004.22
2019-02-07T02:57:41.020Z,1004.17
2019-02-07T02:58:40.993Z,1004.20
2019-02-07T02:59:40.968Z,1004.19
2019-02-07T03:00:40.941Z,1004.19
2019-02-07T03:01:40.924Z,1004.14
2019-02-07T03:02:40.895Z,1004.12
2019-02-07T03:03:40.868Z,1004.18
2019-02-07T03:04:40.843Z,1004.18
2019-02-07T03:05:40.823Z,1004.17
2019-02-07T03:06:40.798Z,1004.18
2019-02-07T03:07:40.769Z,1004.11
2019-02-07T03:08:40.769Z,1004.02
2019-02-07T03:09:40.726Z,1004.06
2019-02-07T03:10:40.695Z,1004.04
2019-02-07T03:11:40.702Z,1004.07
2019-02-07T03:12:40.644Z,1004.05
2019-02-07T03:13:40.629Z,1004.11
2019-02-07T03:14:40.601Z,1004.02
2019-02-07T03:15:49.357Z,1004.07
2019-02-07T03:16:40.564Z,1004.08
2019-02-07T03:17:40.530Z,1004.08
2019-02-07T03:18:40.505Z,1004.11
2019-02-07T03:19:40.480Z,1004.05
2019-02-07T03:20:40.454Z,1004.00
2019-02-07T03:21:40.432Z,1003.98
2019-02-07T03:22:40.406Z,1003.95
2019-02-07T03:23:40.384Z,1003.93
2019-02-07T03:24:40.382Z,1003.90
2019-02-07T03:25:40.326Z,1003.91
2019-02-07T03:26:40.310Z,1003.87
2019-02-07T03:27:40.289Z,1003.82
2019-02-07T03:28:40.267Z,1003.75
2019-02-07T03:29:40.238Z,1003.78
2019-02-07T03:30:40.390Z,1003.81
2019-02-07T03:31:40.187Z,1003.85
2019-02-07T03:32:40.372Z,1003.82
2019-02-07T03:33:40.172Z,1003.82
2019-02-07T03:34:40.114Z,1003.77
2019-02-07T03:35:40.081Z,1003.69
2019-02-07T03:36:40.072Z,1003.67
2019-02-07T03:37:40.040Z,1003.66
2019-02-07T03:38:40.027Z,1003.49
2019-02-07T03:39:39.992Z,1003.51
2019-02-07T03:40:39.963Z,1003.57
2019-02-07T03:41:39.939Z,1003.63
2019-02-07T03:42:39.916Z,1003.61
2019-02-07T03:43:39.891Z,1003.64
2019-02-07T03:44:39.868Z,1003.63
2019-02-07T03:45:39.839Z,1003.61
2019-02-07T03:46:39.814Z,1003.58
2019-02-07T03:47:39.789Z,1003.49
2019-02-07T03:48:39.763Z,1003.47
2019-02-07T03:49:39.749Z,1003.47
2019-02-07T03:50:39.713Z,1003.44
2019-02-07T03:51:39.688Z,1003.43
2019-02-07T03:52:39.665Z,1003.47
2019-02-07T03:53:39.637Z,1003.50
2019-02-07T03:54:39.621Z,1003.48
2019-02-07T03:55:39.589Z,1003.43
2019-02-07T03:56:39.564Z,1003.52
2019-02-07T03:57:46.703Z,1003.53
2019-02-07T03:59:43.739Z,1003.52
2019-02-07T04:00:43.698Z,1003.47
2019-02-07T04:02:47.892Z,1003.47
2019-02-07T04:03:47.868Z,1003.52
2019-02-07T04:05:52.197Z,1003.47
2019-02-07T04:06:52.034Z,1003.41
2019-02-07T04:08:45.161Z,1003.43
2019-02-07T04:09:45.122Z,1003.46
2019-02-07T04:11:49.311Z,1003.25
2019-02-07T04:12:49.266Z,1003.18
2019-02-07T04:14:53.451Z,1003.28
2019-02-07T04:15:53.418Z,1003.25
2019-02-07T04:17:57.604Z,1003.24
2019-02-07T04:18:57.565Z,1003.28
2019-02-07T04:21:01.809Z,1003.19
2019-02-07T04:22:01.715Z,1003.20
2019-02-07T04:24:05.910Z,1003.30
2019-02-07T04:25:05.887Z,1003.20
2019-02-07T04:27:10.041Z,1003.18
2019-02-07T04:28:10.027Z,1003.11
2019-02-07T04:30:14.198Z,1003.12
2019-02-07T04:31:14.156Z,1003.10
2019-02-07T04:33:18.331Z,1003.05
2019-02-07T04:34:18.306Z,1003.04
2019-02-07T04:36:22.494Z,1003.08
2019-02-07T04:37:22.449Z,1003.10
2019-02-07T04:39:26.751Z,1003.11
2019-02-07T04:40:26.597Z,1003.13
2019-02-07T04:42:30.791Z,1003.13
2019-02-07T04:43:30.745Z,1003.15
2019-02-07T04:45:34.935Z,1003.12
2019-02-07T04:46:34.904Z,1003.15
2019-02-07T04:48:28.046Z,1003.12
2019-02-07T04:49:27.987Z,1003.14
2019-02-07T04:51:32.171Z,1003.12
2019-02-07T04:52:32.131Z,1003.07
2019-02-07T04:54:36.320Z,1003.17
2019-02-07T04:55:36.277Z,1003.13
2019-02-07T04:57:40.455Z,1003.14
2019-02-07T04:58:40.423Z,1003.14
2019-02-07T05:00:44.618Z,1003.11
2019-02-07T05:01:44.596Z,1003.08
2019-02-07T05:03:48.745Z,1002.97
2019-02-07T05:04:48.718Z,1002.99
2019-02-07T05:06:52.918Z,1002.96
2019-02-07T05:07:52.867Z,1002.94
2019-02-07T05:09:57.055Z,1002.88
2019-02-07T05:10:57.025Z,1002.80
2019-02-07T05:13:01.211Z,1002.87
2019-02-07T05:14:01.171Z,1002.92
2019-02-07T05:16:05.346Z,1002.96
2019-02-07T05:17:05.320Z,1002.94
2019-02-07T05:19:09.510Z,1003.01
2019-02-07T05:20:09.465Z,1002.99
2019-02-07T05:22:13.645Z,1003.05
2019-02-07T05:23:13.610Z,1002.99
2019-02-07T05:25:17.805Z,1003.06
2019-02-07T05:26:17.758Z,1003.13
2019-02-07T05:28:10.870Z,1003.07
2019-02-07T05:29:10.840Z,1003.07
2019-02-07T05:31:15.030Z,1003.06
2019-02-07T05:32:14.991Z,1003.05
2019-02-07T05:34:19.176Z,1003.11
2019-02-07T05:35:19.133Z,1003.12
2019-02-07T05:37:23.319Z,1003.15
2019-02-07T05:38:23.279Z,1003.11
2019-02-07T05:40:27.451Z,1003.13
2019-02-07T05:41:27.422Z,1003.12
2019-02-07T05:43:31.613Z,1003.05
2019-02-07T05:44:31.582Z,1002.98
2019-02-07T05:46:35.746Z,1002.89
2019-02-07T05:47:35.716Z,1002.84
2019-02-07T05:49:39.905Z,1002.74
2019-02-07T05:50:39.885Z,1002.73
2019-02-07T05:52:44.041Z,1002.77
2019-02-07T05:53:44.030Z,1002.84
2019-02-07T05:55:48.196Z,1002.76
2019-02-07T05:56:48.159Z,1002.68
2019-02-07T05:58:41.290Z,1002.61
2019-02-07T05:59:41.240Z,1002.59
2019-02-07T06:01:45.452Z,1002.58
2019-02-07T06:02:45.416Z,1002.55
2019-02-07T06:04:49.607Z,1002.49
2019-02-07T06:05:49.558Z,1002.49
2019-02-07T06:07:53.752Z,1002.42
2019-02-07T06:08:53.699Z,1002.50
2019-02-07T06:10:57.884Z,1002.49
2019-02-07T06:11:57.850Z,1002.52
2019-02-07T06:14:02.062Z,1002.56
2019-02-07T06:15:01.997Z,1002.50
2019-02-07T06:17:06.191Z,1002.53
2019-02-07T06:18:06.149Z,1002.54
2019-02-07T06:20:10.334Z,1002.51
2019-02-07T06:21:10.298Z,1002.52
2019-02-07T06:23:14.470Z,1002.50
2019-02-07T06:24:14.429Z,1002.48
2019-02-07T06:26:18.626Z,1002.48
2019-02-07T06:27:18.583Z,1002.47
2019-02-07T06:29:22.758Z,1002.39
2019-02-07T06:30:22.726Z,1002.42
2019-02-07T06:32:26.914Z,1002.38
2019-02-07T06:33:26.877Z,1002.42
2019-02-07T06:35:31.060Z,1002.43
2019-02-07T06:36:31.039Z,1002.37
2019-02-07T06:38:24.153Z,1002.39
2019-02-07T06:39:24.110Z,1002.49
2019-02-07T06:41:28.280Z,1002.40
2019-02-07T06:42:28.252Z,1002.39
2019-02-07T06:44:32.440Z,1002.37
2019-02-07T06:45:32.409Z,1002.36
2019-02-07T06:47:36.595Z,1002.36
2019-02-07T06:48:36.572Z,1002.36
2019-02-07T06:50:40.761Z,1002.36
2019-02-07T06:51:40.721Z,1002.36
2019-02-07T06:53:44.899Z,1002.33
2019-02-07T06:54:44.870Z,1002.39
2019-02-07T06:56:49.054Z,1002.41
2019-02-07T06:57:49.017Z,1002.38
2019-02-07T06:59:53.194Z,1002.41
2019-02-07T07:00:53.167Z,1002.40
2019-02-07T07:02:57.355Z,1002.33
2019-02-07T07:03:57.845Z,1002.26
2019-02-07T07:06:01.488Z,1002.28
2019-02-07T07:07:01.460Z,1002.38
2019-02-07T07:09:05.639Z,1002.29
2019-02-07T07:10:05.605Z,1002.39
2019-02-07T07:12:09.777Z,1002.35
2019-02-07T07:13:09.752Z,1002.29
2019-02-07T07:15:13.934Z,1002.21
2019-02-07T07:16:13.900Z,1002.26
2019-02-07T07:18:07.004Z,1002.23
2019-02-07T07:19:06.978Z,1002.18
2019-02-07T07:21:11.171Z,1002.13
2019-02-07T07:22:11.129Z,1002.11
2019-02-07T07:24:15.329Z,1002.08
2019-02-07T07:25:15.298Z,1001.99
2019-02-07T07:27:19.524Z,1001.93
2019-02-07T07:28:19.471Z,1001.98
2019-02-07T07:30:23.665Z,1001.93
2019-02-07T07:31:23.622Z,1001.96
2019-02-07T07:33:27.829Z,1001.88
2019-02-07T07:34:27.778Z,1001.82
2019-02-07T07:36:32.011Z,1001.78
2019-02-07T07:37:31.972Z,1001.81
2019-02-07T07:39:36.161Z,1001.80
2019-02-07T07:40:36.123Z,1001.79
2019-02-07T07:42:40.311Z,1001.76
2019-02-07T07:43:40.282Z,1001.70
2019-02-07T07:45:44.458Z,1001.70
2019-02-07T07:46:44.426Z,1001.71
2019-02-07T07:47:44.401Z,1001.70
2019-02-07T07:48:44.402Z,1001.71
2019-02-07T07:49:44.355Z,1001.68
2019-02-07T07:50:44.327Z,1001.63
2019-02-07T07:51:44.303Z,1001.63
2019-02-07T07:52:44.278Z,1001.60
2019-02-07T07:53:44.254Z,1001.64
2019-02-07T07:54:44.232Z,1001.64
2019-02-07T07:55:44.200Z,1001.67
2019-02-07T07:56:44.181Z,1001.62
2019-02-07T07:57:44.162Z,1001.59
2019-02-07T07:58:44.148Z,1001.58
2019-02-07T07:59:44.110Z,1001.53
2019-02-07T08:00:44.088Z,1001.57
2019-02-07T08:01:44.067Z,1001.56
2019-02-07T08:02:44.039Z,1001.56
2019-02-07T08:03:44.013Z,1001.54
2019-02-07T08:04:43.991Z,1001.57
2019-02-07T08:05:43.971Z,1001.58
2019-02-07T08:06:43.939Z,1001.61
2019-02-07T08:07:43.915Z,1001.65
2019-02-07T08:08:43.891Z,1001.62
2019-02-07T08:09:43.868Z,1001.63
2019-02-07T08:10:43.849Z,1001.64
2019-02-07T08:11:43.827Z,1001.62
2019-02-07T08:12:43.794Z,1001.59
2019-02-07T08:13:43.776Z,1001.63
2019-02-07T08:14:43.744Z,1001.72
2019-02-07T08:15:43.730Z,1001.63
2019-02-07T08:16:43.701Z,1001.56
2019-02-07T08:17:47.461Z,1001.57
2019-02-07T08:18:43.651Z,1001.57
2019-02-07T08:19:43.628Z,1001.55
2019-02-07T08:20:43.602Z,1001.57
2019-02-07T08:21:43.588Z,1001.54
2019-02-07T08:22:43.556Z,1001.57
2019-02-07T08:23:43.533Z,1001.58
2019-02-07T08:24:43.509Z,1001.54
2019-02-07T08:25:43.497Z,1001.55
2019-02-07T08:26:43.483Z,1001.55
2019-02-07T08:27:43.447Z,1001.51
2019-02-07T08:28:43.412Z,1001.54
2019-02-07T08:29:43.393Z,1001.52
2019-02-07T08:30:43.371Z,1001.49
2019-02-07T08:31:43.338Z,1001.54
2019-02-07T08:32:43.337Z,1001.60
2019-02-07T08:33:43.294Z,1001.66
2019-02-07T08:34:43.270Z,1001.63
2019-02-07T08:35:43.258Z,1001.65
2019-02-07T08:36:43.227Z,1001.62
2019-02-07T08:37:43.198Z,1001.64
2019-02-07T08:38:43.175Z,1001.64
2019-02-07T08:39:43.153Z,1001.65
2019-02-07T08:40:43.129Z,1001.71
2019-02-07T08:41:43.104Z,1001.68
2019-02-07T08:42:43.080Z,1001.66
2019-02-07T08:43:43.061Z,1001.61
2019-02-07T08:44:43.040Z,1001.56
2019-02-07T08:45:43.011Z,1001.57
2019-02-07T08:46:43.010Z,1001.49
2019-02-07T08:47:42.985Z,1001.50
2019-02-07T08:48:42.938Z,1001.49
2019-02-07T08:49:42.916Z,1001.52
2019-02-07T08:50:42.890Z,1001.50
2019-02-07T08:51:42.891Z,1001.48
2019-02-07T08:52:42.843Z,1001.48
2019-02-07T08:53:42.822Z,1001.44
2019-02-07T08:54:42.802Z,1001.45
2019-02-07T08:55:42.774Z,1001.43
2019-02-07T08:56:42.750Z,1001.45
2019-02-07T08:57:42.729Z,1001.47
2019-02-07T08:58:42.703Z,1001.44
2019-02-07T08:59:42.679Z,1001.38
2019-02-07T09:00:42.661Z,1001.43
2019-02-07T09:01:42.643Z,1001.39
2019-02-07T09:02:51.578Z,1001.40
2019-02-07T09:03:42.578Z,1001.43
2019-02-07T09:04:42.566Z,1001.44
2019-02-07T09:05:42.539Z,1001.43
2019-02-07T09:06:42.519Z,1001.36
2019-02-07T09:07:42.497Z,1001.37
2019-02-07T09:08:42.468Z,1001.41
2019-02-07T09:09:42.452Z,1001.41
2019-02-07T09:10:42.418Z,1001.40
2019-02-07T09:11:42.395Z,1001.41
2019-02-07T09:12:42.374Z,1001.43
2019-02-07T09:13:42.396Z,1001.36
2019-02-07T09:14:42.335Z,1001.36
2019-02-07T09:15:42.303Z,1001.38
2019-02-07T09:16:42.281Z,1001.36
2019-02-07T09:17:42.256Z,1001.33
2019-02-07T09:18:42.230Z,1001.35
2019-02-07T09:19:42.214Z,1001.36
2019-02-07T09:20:42.188Z,1001.31
2019-02-07T09:21:42.167Z,1001.33
2019-02-07T09:22:42.140Z,1001.33
2019-02-07T09:23:42.117Z,1001.28
2019-02-07T09:24:42.117Z,1001.31
2019-02-07T09:25:42.070Z,1001.35
2019-02-07T09:26:42.049Z,1001.40
2019-02-07T09:27:42.025Z,1001.43
2019-02-07T09:28:42.003Z,1001.42
2019-02-07T09:29:41.978Z,1001.36
2019-02-07T09:30:41.956Z,1001.36
2019-02-07T09:31:41.956Z,1001.32
2019-02-07T09:32:41.911Z,1001.27
2019-02-07T09:33:41.894Z,1001.19
2019-02-07T09:34:41.867Z,1001.23
2019-02-07T09:35:41.896Z,1001.18
2019-02-07T09:36:41.817Z,1001.20
2019-02-07T09:37:41.847Z,1001.22
2019-02-07T09:38:41.770Z,1001.30
2019-02-07T09:39:41.749Z,1001.29
2019-02-07T09:40:41.733Z,1001.30
2019-02-07T09:41:41.702Z,1001.34
2019-02-07T09:42:41.677Z,1001.34
2019-02-07T09:43:41.659Z,1001.40
2019-02-07T09:44:41.630Z,1001.41
2019-02-07T09:45:41.610Z,1001.39
2019-02-07T09:46:41.588Z,1001.43
2019-02-07T09:47:41.558Z,1001.47
2019-02-07T09:48:41.553Z,1001.47
2019-02-07T09:49:41.516Z,1001.50
2019-02-07T09:50:41.492Z,1001.55
2019-02-07T09:51:41.479Z,1001.54
2019-02-07T09:52:41.446Z,1001.57
2019-02-07T09:53:41.424Z,1001.59
2019-02-07T09:54:41.403Z,1001.56
2019-02-07T09:55:41.378Z,1001.53
2019-02-07T09:56:41.353Z,1001.54
2019-02-07T09:57:48.502Z,1001.59
2019-02-07T09:59:45.517Z,1001.46
2019-02-07T10:00:45.484Z,1001.39
2019-02-07T10:02:49.670Z,1001.51
2019-02-07T10:03:49.638Z,1001.45
2019-02-07T10:05:53.819Z,1001.45
2019-02-07T10:06:53.798Z,1001.42
2019-02-07T10:08:46.923Z,1001.53
2019-02-07T10:09:46.886Z,1001.52
2019-02-07T10:11:51.090Z,1001.49
2019-02-07T10:12:51.051Z,1001.45
2019-02-07T10:14:55.233Z,1001.38
2019-02-07T10:15:55.205Z,1001.41
2019-02-07T10:17:59.419Z,1001.48
2019-02-07T10:18:59.358Z,1001.46
2019-02-07T10:21:03.570Z,1001.52
2019-02-07T10:22:03.539Z,1001.45
2019-02-07T10:24:07.718Z,1001.49
2019-02-07T10:25:07.681Z,1001.46
2019-02-07T10:27:11.865Z,1001.44
2019-02-07T10:28:11.838Z,1001.47
2019-02-07T10:30:16.042Z,1001.51
2019-02-07T10:31:16.003Z,1001.51
2019-02-07T10:33:20.190Z,1001.48
2019-02-07T10:34:20.160Z,1001.47
2019-02-07T10:36:24.395Z,1001.56
2019-02-07T10:37:24.430Z,1001.58
2019-02-07T10:39:17.440Z,1001.57
2019-02-07T10:40:17.417Z,1001.61
2019-02-07T10:42:21.627Z,1001.50
2019-02-07T10:43:21.587Z,1001.58
2019-02-07T10:45:25.760Z,1001.57
2019-02-07T10:46:25.739Z,1001.53
2019-02-07T10:48:29.936Z,1001.48
2019-02-07T10:49:29.902Z,1001.35
2019-02-07T10:51:34.088Z,1001.31
2019-02-07T10:52:34.053Z,1001.32
2019-02-07T10:54:38.285Z,1001.21
2019-02-07T10:55:38.225Z,1001.18
2019-02-07T10:57:42.408Z,1001.15
2019-02-07T10:58:42.402Z,1001.11
2019-02-07T11:00:46.575Z,1001.13
2019-02-07T11:01:46.536Z,1001.12
2019-02-07T11:03:50.720Z,1001.16
2019-02-07T11:04:50.707Z,1001.16
2019-02-07T11:06:54.894Z,1001.16
2019-02-07T11:07:54.875Z,1001.26
2019-02-07T11:09:59.044Z,1001.15
2019-02-07T11:10:59.031Z,1001.15
2019-02-07T11:13:03.210Z,1001.11
2019-02-07T11:14:03.169Z,1001.12
2019-02-07T11:16:07.362Z,1001.03
2019-02-07T11:17:07.331Z,1001.03
2019-02-07T11:19:00.465Z,1000.98
2019-02-07T11:20:00.425Z,1001.00
2019-02-07T11:22:04.619Z,1001.04
2019-02-07T11:23:04.592Z,1000.99
2019-02-07T11:25:08.778Z,1001.12
2019-02-07T11:26:08.749Z,1001.09
2019-02-07T11:28:12.947Z,1001.03
2019-02-07T11:29:12.903Z,1001.00
2019-02-07T11:31:17.096Z,1001.04
2019-02-07T11:32:17.062Z,1001.04
2019-02-07T11:34:21.242Z,1001.01
2019-02-07T11:35:21.216Z,1001.04
2019-02-07T11:37:25.413Z,1001.01
2019-02-07T11:38:25.386Z,1001.05
2019-02-07T11:40:29.582Z,1001.10
2019-02-07T11:41:29.548Z,1001.12
2019-02-07T11:43:33.747Z,1001.12
2019-02-07T11:44:33.703Z,1001.02
2019-02-07T11:46:37.887Z,1001.11
2019-02-07T11:47:37.864Z,1001.09
2019-02-07T11:49:42.060Z,1001.03
2019-02-07T11:50:42.026Z,1001.07
2019-02-07T11:52:35.326Z,1001.07
2019-02-07T11:53:35.306Z,1001.02
2019-02-07T11:55:39.508Z,1000.98
2019-02-07T11:56:39.470Z,1000.90
2019-02-07T11:58:32.582Z,1000.85
2019-02-07T11:59:32.557Z,1000.79
2019-02-07T12:01:36.757Z,1000.85
2019-02-07T12:02:36.718Z,1000.82
2019-02-07T12:04:40.905Z,1000.84
2019-02-07T12:05:40.876Z,1000.84
2019-02-07T12:07:45.075Z,1000.82
2019-02-07T12:08:45.038Z,1000.82
2019-02-07T12:10:49.248Z,1000.82
2019-02-07T12:11:49.224Z,1000.79
2019-02-07T12:13:53.422Z,1000.75
2019-02-07T12:14:53.376Z,1000.81
2019-02-07T12:16:57.576Z,1000.79
2019-02-07T12:17:57.553Z,1000.77
2019-02-07T12:18:57.519Z,1000.79
2019-02-07T12:19:57.493Z,1000.79
2019-02-07T12:20:57.474Z,1000.77
2019-02-07T12:21:57.455Z,1000.78
2019-02-07T12:22:57.444Z,1000.72
2019-02-07T12:23:57.408Z,1000.79
2019-02-07T12:24:57.386Z,1000.80
2019-02-07T12:25:57.368Z,1000.81
2019-02-07T12:26:57.347Z,1000.79
2019-02-07T12:27:57.331Z,1000.80
2019-02-07T12:28:57.306Z,1000.77
2019-02-07T12:29:57.278Z,1000.75
2019-02-07T12:30:57.258Z,1000.70
2019-02-07T12:31:57.237Z,1000.64
2019-02-07T12:32:57.220Z,1000.60
2019-02-07T12:33:57.193Z,1000.58
2019-02-07T12:34:57.186Z,1000.62
2019-02-07T12:35:57.149Z,1000.58
2019-02-07T12:36:57.143Z,1000.51
2019-02-07T12:37:57.156Z,1000.52
2019-02-07T12:38:57.084Z,1000.46
2019-02-07T12:39:57.063Z,1000.51
2019-02-07T12:40:57.043Z,1000.49
2019-02-07T12:41:57.020Z,1000.45
2019-02-07T12:42:57.012Z,1000.47
2019-02-07T12:43:56.977Z,1000.48
2019-02-07T12:44:56.955Z,1000.49
2019-02-07T12:45:56.935Z,1000.48
2019-02-07T12:46:56.915Z,1000.44
2019-02-07T12:47:56.903Z,1000.49
2019-02-07T12:48:56.870Z,1000.48
2019-02-07T12:49:56.851Z,1000.50
2019-02-07T12:50:56.819Z,1000.49
2019-02-07T12:51:56.807Z,1000.44
2019-02-07T12:52:56.786Z,1000.48
2019-02-07T12:53:56.776Z,1000.45
2019-02-07T12:54:56.743Z,1000.44
2019-02-07T12:55:56.723Z,1000.45
2019-02-07T12:56:56.699Z,1000.42
2019-02-07T12:57:56.682Z,1000.43
2019-02-07T12:58:56.659Z,1000.45
2019-02-07T12:59:56.641Z,1000.38
2019-02-07T13:00:56.622Z,1000.44
2019-02-07T13:01:56.595Z,1000.42
2019-02-07T13:02:56.573Z,1000.42
2019-02-07T13:03:56.554Z,1000.41
2019-02-07T13:04:56.530Z,1000.39
2019-02-07T13:05:56.516Z,1000.41
2019-02-07T13:06:56.491Z,1000.34
2019-02-07T13:07:56.470Z,1000.35
2019-02-07T13:08:56.451Z,1000.36
2019-02-07T13:09:56.427Z,1000.35
2019-02-07T13:10:56.422Z,1000.38
2019-02-07T13:11:56.387Z,1000.41
2019-02-07T13:12:56.390Z,1000.38
2019-02-07T13:13:56.343Z,1000.42
2019-02-07T13:14:56.326Z,1000.38
2019-02-07T13:15:56.321Z,1000.34
2019-02-07T13:16:56.309Z,1000.41
2019-02-07T13:17:56.269Z,1000.39
2019-02-07T13:18:56.242Z,1000.37
2019-02-07T13:19:56.219Z,1000.42
2019-02-07T13:20:56.200Z,1000.38
2019-02-07T13:21:56.208Z,1000.36
2019-02-07T13:22:56.162Z,1000.40
2019-02-07T13:23:56.151Z,1000.33
2019-02-07T13:24:56.113Z,1000.39
2019-02-07T13:25:56.140Z,1000.40
2019-02-07T13:26:56.085Z,1000.39
2019-02-07T13:27:56.069Z,1000.39
2019-02-07T13:28:56.032Z,1000.46
2019-02-07T13:29:56.006Z,1000.50
2019-02-07T13:30:56.033Z,1000.48
2019-02-07T13:31:55.966Z,1000.53
2019-02-07T13:32:55.945Z,1000.47
2019-02-07T13:33:55.930Z,1000.49
2019-02-07T13:34:55.930Z,1000.50
2019-02-07T13:35:56.001Z,1000.49
2019-02-07T13:36:55.888Z,1000.53
2019-02-07T13:37:55.859Z,1000.57
2019-02-07T13:38:55.826Z,1000.61
2019-02-07T13:39:55.800Z,1000.59
2019-02-07T13:40:55.799Z,1000.59
2019-02-07T13:41:55.759Z,1000.60
2019-02-07T13:42:55.738Z,1000.59
2019-02-07T13:43:55.722Z,1000.66
2019-02-07T13:44:55.696Z,1000.72
2019-02-07T13:45:55.679Z,1000.70
2019-02-07T13:46:55.652Z,1000.71
2019-02-07T13:47:55.635Z,1000.75
2019-02-07T13:48:55.616Z,1000.79
2019-02-07T13:49:55.596Z,1000.79
2019-02-07T13:50:55.576Z,1000.78
2019-02-07T13:51:55.551Z,1000.82
2019-02-07T13:52:55.530Z,1000.81
2019-02-07T13:53:55.513Z,1000.78
2019-02-07T13:54:55.488Z,1000.79
2019-02-07T13:55:55.469Z,1000.80
2019-02-07T13:56:55.496Z,1000.87
2019-02-07T13:57:55.427Z,1000.86
2019-02-07T13:58:55.406Z,1000.82
2019-02-07T13:59:55.397Z,1000.89
2019-02-07T14:00:55.369Z,1000.85
2019-02-07T14:01:55.347Z,1000.83
2019-02-07T14:02:55.313Z,1000.87
2019-02-07T14:03:55.298Z,1000.85
2019-02-07T14:04:55.279Z,1000.83
2019-02-07T14:05:55.261Z,1000.89
2019-02-07T14:06:55.240Z,1000.88
2019-02-07T14:07:55.219Z,1000.92
2019-02-07T14:08:55.195Z,1000.87
2019-02-07T14:09:55.173Z,1000.91
2019-02-07T14:10:55.151Z,1000.89
2019-02-07T14:11:55.133Z,1000.82
2019-02-07T14:12:55.125Z,1000.91